Time;durP1;ratioP1;P1;durP2;ratioP2;P2;SDS_P1;SDS_P2;PMS_P1;PMS_P2;Temp;Humidity;BMP_temperature;BMP_pressure;BME280_temperature;BME280_humidity;BME280_pressure;Samples;Min_cycle;Max_cycle;Signal;HPM_P1;HPM_P2
2023/01/26 00:02:05;;;;;;;18.57;9.33;;;;;;;;;;5050795;28;20276;-68
2023/01/26 00:04:31;;;;;;;17.40;10.50;;;;;;;;;;5069002;28;20176;-69
2023/01/26 00:06:56;;;;;;;18.90;11.03;;;;;;;;;;5069074;28;20558;-68
2023/01/26 00:09:21;;;;;;;21.33;9.80;;;;;;;;;;5068994;28;20674;-68
2023/01/26 00:11:47;;;;;;;17.00;8.97;;;;;;;;;;5051187;28;20631;-68
2023/01/26 00:14:12;;;;;;;33.43;9.97;;;;;;;;;;5069223;28;20245;-67
2023/01/26 00:16:38;;;;;;;20.30;8.77;;;;;;;;;;5068766;28;20563;-68
2023/01/26 00:19:03;;;;;;;18.37;10.50;;;;;;;;;;5069021;28;20182;-68
2023/01/26 00:21:29;;;;;;;18.90;9.67;;;;;;;;;;5068761;28;20253;-67
2023/01/26 00:23:55;;;;;;;12.90;8.33;;;;;;;;;;5068961;28;20173;-70
2023/01/26 00:26:24;;;;;;;16.87;11.43;;;;;;;;;;5068762;28;20165;-68
2023/01/26 00:28:50;;;;;;;15.50;9.17;;;;;;;;;;5068545;28;20163;-69
2023/01/26 00:31:18;;;;;;;19.90;9.60;;;;;;;;;;5068115;28;20416;-69
2023/01/26 00:33:44;;;;;;;20.50;11.17;;;;;;;;;;5068546;28;20413;-69
2023/01/26 00:36:10;;;;;;;17.63;10.30;;;;;;;;;;5068539;28;20462;-67
2023/01/26 00:38:35;;;;;;;20.53;9.97;;;;;;;;;;5068618;28;20174;-67
2023/01/26 00:41:01;;;;;;;16.37;11.17;;;;;;;;;;5068376;28;20420;-69
2023/01/26 00:43:26;;;;;;;21.40;10.87;;;;;;;;;;5068569;28;20259;-68
2023/01/26 00:45:52;;;;;;;16.57;9.00;;;;;;;;;;5068551;28;20799;-68
2023/01/26 00:48:17;;;;;;;19.57;11.20;;;;;;;;;;5068371;28;20949;-68
2023/01/26 00:50:43;;;;;;;15.63;9.40;;;;;;;;;;5068370;28;20166;-67
2023/01/26 00:53:08;;;;;;;19.00;11.37;;;;;;;;;;5068720;28;20171;-68
2023/01/26 00:55:34;;;;;;;13.60;7.53;;;;;;;;;;5058864;28;20256;-68
2023/01/26 00:58:01;;;;;;;17.40;9.63;;;;;;;;;;5048324;28;20273;-68
2023/01/26 01:00:27;;;;;;;17.80;8.80;;;;;;;;;;5048135;28;20174;-70
2023/01/26 01:02:55;;;;;;;16.50;9.27;;;;;;;;;;5048266;28;20468;-68
2023/01/26 01:05:21;;;;;;;16.00;9.00;;;;;;;;;;5048100;28;20410;-67
2023/01/26 01:07:47;;;;;;;15.20;8.77;;;;;;;;;;5048195;28;20470;-69
2023/01/26 01:10:12;;;;;;;15.97;8.87;;;;;;;;;;5047830;28;20409;-68
2023/01/26 01:12:38;;;;;;;14.33;9.17;;;;;;;;;;5048093;28;20538;-69
2023/01/26 01:15:04;;;;;;;16.17;9.80;;;;;;;;;;5048003;28;20251;-68
2023/01/26 01:17:29;;;;;;;15.87;9.17;;;;;;;;;;5048098;28;20210;-68
2023/01/26 01:19:55;;;;;;;15.47;8.90;;;;;;;;;;5048174;28;20417;-67
2023/01/26 01:22:20;;;;;;;15.70;7.90;;;;;;;;;;5048092;28;20606;-67
2023/01/26 01:24:46;;;;;;;15.23;8.17;;;;;;;;;;5048072;28;20209;-69
2023/01/26 01:27:11;;;;;;;18.33;8.90;;;;;;;;;;5048208;28;20539;-69
2023/01/26 01:29:37;;;;;;;12.63;7.60;;;;;;;;;;5048075;28;20225;-69
2023/01/26 01:32:02;;;;;;;13.47;8.03;;;;;;;;;;5047881;28;20216;-68
2023/01/26 01:34:28;;;;;;;16.30;8.50;;;;;;;;;;5048035;28;20174;-68
2023/01/26 01:36:53;;;;;;;14.93;9.40;;;;;;;;;;5047943;28;20557;-66
2023/01/26 01:39:18;;;;;;;15.30;9.50;;;;;;;;;;5048032;28;20186;-68
2023/01/26 01:41:44;;;;;;;18.00;9.13;;;;;;;;;;5048618;28;20206;-68
2023/01/26 01:44:21;;;;;;;16.07;8.10;;;;;;;;;;5051880;28;20163;-67
2023/01/26 01:46:46;;;;;;;16.80;9.80;;;;;;;;;;5051769;28;20270;-67
2023/01/26 01:49:22;;;;;;;14.43;9.00;;;;;;;;;;5051741;28;20500;-69
2023/01/26 01:52:14;;;;;;;15.90;10.33;;;;;;;;;;5051701;28;20255;-69
2023/01/26 01:55:06;;;;;;;22.60;9.10;;;;;;;;;;5046481;28;20512;-68
2023/01/26 01:57:50;;;;;;;17.90;9.83;;;;;;;;;;5071615;28;20444;-68
2023/01/26 02:00:18;;;;;;;14.00;9.23;;;;;;;;;;5071736;28;20993;-67
2023/01/26 02:05:39;;;;;;;16.40;8.93;;;;;;;;;;5072351;28;20765;-67
2023/01/26 02:08:05;;;;;;;17.27;8.77;;;;;;;;;;5071726;28;20424;-68
2023/01/26 02:10:31;;;;;;;15.73;8.90;;;;;;;;;;5071526;28;20491;-67
2023/01/26 02:12:59;;;;;;;14.60;8.33;;;;;;;;;;5071677;28;20738;-68
2023/01/26 02:15:25;;;;;;;16.70;9.97;;;;;;;;;;5071492;28;20486;-68
2023/01/26 02:17:52;;;;;;;21.47;11.47;;;;;;;;;;5072019;28;20432;-68
2023/01/26 02:20:29;;;;;;;19.40;9.53;;;;;;;;;;5072343;28;21313;-68
2023/01/26 02:23:00;;;;;;;15.67;9.30;;;;;;;;;;5071878;28;20404;-68
2023/01/26 02:25:35;;;;;;;15.23;8.63;;;;;;;;;;5071229;28;20942;-69
2023/01/26 02:28:00;;;;;;;15.13;8.73;;;;;;;;;;5070919;28;20428;-67
2023/01/26 02:30:27;;;;;;;19.80;9.30;;;;;;;;;;5071039;28;20420;-70
2023/01/26 02:32:54;;;;;;;16.17;8.83;;;;;;;;;;5071246;28;20199;-68
2023/01/26 02:35:19;;;;;;;14.73;8.43;;;;;;;;;;5070964;28;21221;-69
2023/01/26 02:37:45;;;;;;;14.17;9.17;;;;;;;;;;5070953;28;20471;-68
2023/01/26 02:40:41;;;;;;;33.17;9.67;;;;;;;;;;5070915;28;20231;-66
2023/01/26 02:43:07;;;;;;;13.83;8.20;;;;;;;;;;5071032;28;20682;-67
2023/01/26 02:45:33;;;;;;;16.67;9.17;;;;;;;;;;5071065;28;20397;-68
2023/01/26 02:48:03;;;;;;;19.37;9.23;;;;;;;;;;5070758;28;20190;-67
2023/01/26 02:50:29;;;;;;;17.40;10.10;;;;;;;;;;5070638;28;20793;-69
2023/01/26 02:52:54;;;;;;;14.67;9.10;;;;;;;;;;5070114;28;20489;-67
2023/01/26 02:55:27;;;;;;;21.33;11.80;;;;;;;;;;5062870;28;20848;-68
2023/01/26 02:57:56;;;;;;;16.23;9.07;;;;;;;;;;5050595;28;20198;-70
2023/01/26 03:00:27;;;;;;;18.10;10.37;;;;;;;;;;5050280;28;20815;-67
2023/01/26 03:02:56;;;;;;;16.33;9.80;;;;;;;;;;5050746;28;20554;-69
2023/01/26 03:05:22;;;;;;;14.23;8.50;;;;;;;;;;5050394;28;20401;-68
2023/01/26 03:07:47;;;;;;;12.37;7.00;;;;;;;;;;5050275;28;20451;-67
2023/01/26 03:10:15;;;;;;;13.60;9.47;;;;;;;;;;5050158;28;20163;-67
2023/01/26 03:12:41;;;;;;;10.30;7.20;;;;;;;;;;5050207;28;20659;-69
2023/01/26 03:27:25;;;;;;;11.10;7.20;;;;;;;;;;5050408;28;20206;-68
2023/01/26 03:28:53;;;;;;;13.53;8.63;;;;;;;;;;5049975;28;21348;-68
2023/01/26 03:31:18;;;;;;;12.00;7.50;;;;;;;;;;5049226;28;20424;-69
2023/01/26 03:33:44;;;;;;;14.23;6.80;;;;;;;;;;5049841;28;20246;-66
2023/01/26 03:36:09;;;;;;;13.03;7.33;;;;;;;;;;5049482;28;20206;-68
2023/01/26 03:38:34;;;;;;;16.03;8.30;;;;;;;;;;5049431;28;20178;-68
2023/01/26 03:57:23;;;;;;;13.70;8.53;;;;;;;;;;5069124;28;20424;-67
2023/01/26 03:59:49;;;;;;;14.77;9.13;;;;;;;;;;5069020;28;20401;-69
2023/01/26 04:10:26;;;;;;;13.63;8.30;;;;;;;;;;5068945;28;20466;-67
2023/01/26 04:23:52;;;;;;;19.40;9.30;;;;;;;;;;5069076;28;20973;-66
2023/01/26 04:26:17;;;;;;;16.00;9.37;;;;;;;;;;5068608;28;20405;-68
2023/01/26 04:28:42;;;;;;;15.43;9.80;;;;;;;;;;5068612;28;20415;-69
2023/01/26 04:31:08;;;;;;;25.40;11.43;;;;;;;;;;5068019;28;20631;-68
2023/01/26 04:33:33;;;;;;;22.50;11.27;;;;;;;;;;5068632;28;20209;-67
2023/01/26 04:36:06;;;;;;;28.13;11.30;;;;;;;;;;5068218;28;20194;-67
2023/01/26 04:38:31;;;;;;;19.70;10.13;;;;;;;;;;5068253;28;20320;-69
2023/01/26 04:40:57;;;;;;;20.73;10.00;;;;;;;;;;5049914;28;20507;-68
2023/01/26 04:43:22;;;;;;;12.13;8.20;;;;;;;;;;5068316;28;20162;-68
2023/01/26 04:46:02;;;;;;;13.33;9.20;;;;;;;;;;5068169;28;20665;-68
2023/01/26 04:48:29;;;;;;;18.73;10.50;;;;;;;;;;5068061;28;20300;-69
2023/01/26 04:50:59;;;;;;;17.27;10.53;;;;;;;;;;5067821;28;20912;-67
2023/01/26 04:53:25;;;;;;;15.73;10.40;;;;;;;;;;5068046;28;20397;-68
2023/01/26 04:55:51;;;;;;;15.47;10.17;;;;;;;;;;5056390;28;20468;-67
2023/01/26 04:58:17;;;;;;;17.43;10.07;;;;;;;;;;5048098;28;20244;-68
2023/01/26 05:00:43;;;;;;;16.87;10.13;;;;;;;;;;5047712;28;20171;-67
2023/01/26 05:03:08;;;;;;;14.97;10.13;;;;;;;;;;5048004;28;20428;-67
2023/01/26 05:05:38;;;;;;;17.77;11.30;;;;;;;;;;5048166;28;20167;-69
2023/01/26 05:08:04;;;;;;;22.00;11.23;;;;;;;;;;5048050;28;20232;-68
2023/01/26 05:10:31;;;;;;;24.27;10.57;;;;;;;;;;5047120;28;20416;-69
2023/01/26 05:12:56;;;;;;;13.00;8.37;;;;;;;;;;5047844;28;20495;-70
2023/01/26 05:15:21;;;;;;;13.77;9.53;;;;;;;;;;5047537;28;20517;-69
2023/01/26 05:17:47;;;;;;;17.77;11.13;;;;;;;;;;5048061;28;20679;-69
2023/01/26 05:20:12;;;;;;;17.13;11.07;;;;;;;;;;5048200;28;20591;-70
2023/01/26 05:22:38;;;;;;;16.40;10.80;;;;;;;;;;5048047;28;20266;-68
2023/01/26 05:25:04;;;;;;;16.50;9.87;;;;;;;;;;5048095;28;20198;-68
2023/01/26 05:27:29;;;;;;;14.37;9.87;;;;;;;;;;5048910;28;20542;-68
2023/01/26 05:29:59;;;;;;;12.30;8.07;;;;;;;;;;5053330;28;20182;-66
2023/01/26 05:32:28;;;;;;;14.07;8.60;;;;;;;;;;5052877;28;20189;-68
2023/01/26 05:34:55;;;;;;;15.03;9.60;;;;;;;;;;5066991;28;20459;-67
2023/01/26 05:37:20;;;;;;;13.70;9.20;;;;;;;;;;5066277;28;20510;-68
2023/01/26 05:39:46;;;;;;;18.53;10.00;;;;;;;;;;5048391;28;20433;-68
2023/01/26 05:42:12;;;;;;;17.20;10.17;;;;;;;;;;5044103;28;20178;-67
2023/01/26 05:44:38;;;;;;;14.47;8.87;;;;;;;;;;5064586;28;20174;-67
2023/01/26 05:47:03;;;;;;;16.40;10.43;;;;;;;;;;5062832;28;20453;-67
2023/01/26 05:49:29;;;;;;;14.10;9.73;;;;;;;;;;5065268;28;20204;-68
2023/01/26 05:51:54;;;;;;;18.90;10.60;;;;;;;;;;5055127;28;20202;-67
2023/01/26 05:54:20;;;;;;;15.00;10.87;;;;;;;;;;5045096;28;20178;-66
2023/01/26 05:56:45;;;;;;;20.70;11.17;;;;;;;;;;5052123;28;20286;-66
2023/01/26 05:59:10;;;;;;;18.20;9.90;;;;;;;;;;5065132;28;20646;-68
2023/01/26 06:01:36;;;;;;;19.83;10.37;;;;;;;;;;5057505;28;20181;-67
2023/01/26 06:04:01;;;;;;;17.37;9.97;;;;;;;;;;5064224;28;20666;-66
2023/01/26 06:06:27;;;;;;;13.93;10.23;;;;;;;;;;5052318;28;20254;-69
2023/01/26 06:08:52;;;;;;;30.57;12.90;;;;;;;;;;5049941;28;20198;-68
2023/01/26 06:11:18;;;;;;;16.50;11.87;;;;;;;;;;5051076;28;20179;-66
2023/01/26 06:13:43;;;;;;;16.90;9.70;;;;;;;;;;5054554;28;20173;-68
2023/01/26 06:16:09;;;;;;;23.03;11.60;;;;;;;;;;5052959;28;20212;-68
2023/01/26 06:18:34;;;;;;;17.57;11.70;;;;;;;;;;5056330;28;20293;-68
2023/01/26 06:21:00;;;;;;;18.63;11.93;;;;;;;;;;5057025;28;20205;-66
2023/01/26 06:23:25;;;;;;;17.27;11.40;;;;;;;;;;5054897;28;20539;-69
2023/01/26 06:25:51;;;;;;;19.20;12.00;;;;;;;;;;5057254;28;20178;-67
2023/01/26 06:28:18;;;;;;;17.17;11.73;;;;;;;;;;5059939;28;20203;-68
2023/01/26 06:30:44;;;;;;;15.50;11.23;;;;;;;;;;5063100;28;20178;-67
2023/01/26 06:33:10;;;;;;;18.67;11.23;;;;;;;;;;5060598;28;20431;-69
2023/01/26 06:35:36;;;;;;;21.10;12.93;;;;;;;;;;5060493;28;20613;-70
2023/01/26 06:38:01;;;;;;;22.80;12.17;;;;;;;;;;5062251;28;20190;-66
2023/01/26 06:40:27;;;;;;;30.00;13.20;;;;;;;;;;5048003;28;20597;-66
2023/01/26 06:42:52;;;;;;;16.77;10.40;;;;;;;;;;5060974;28;20173;-69
2023/01/26 06:45:19;;;;;;;23.00;12.50;;;;;;;;;;5064363;28;20171;-68
2023/01/26 06:47:49;;;;;;;19.10;11.20;;;;;;;;;;5049909;28;20224;-68
2023/01/26 06:50:18;;;;;;;19.13;13.23;;;;;;;;;;5057458;28;20485;-69
2023/01/26 06:52:46;;;;;;;16.20;10.37;;;;;;;;;;5067610;28;20767;-68
2023/01/26 06:55:29;;;;;;;25.00;11.23;;;;;;;;;;5067601;28;20460;-68
2023/01/26 06:57:55;;;;;;;16.97;11.10;;;;;;;;;;5067906;28;20486;-68
2023/01/26 07:00:21;;;;;;;45.20;16.20;;;;;;;;;;5067413;28;20829;-69
2023/01/26 07:02:46;;;;;;;17.30;11.90;;;;;;;;;;5067530;28;20537;-67
2023/01/26 07:05:12;;;;;;;16.60;10.73;;;;;;;;;;5055597;28;20236;-66
2023/01/26 07:07:37;;;;;;;20.20;11.40;;;;;;;;;;5057622;28;20194;-68
2023/01/26 07:10:05;;;;;;;19.20;10.23;;;;;;;;;;5040160;28;20293;-68
2023/01/26 07:12:42;;;;;;;17.97;11.23;;;;;;;;;;5059899;28;20192;-68
2023/01/26 07:15:08;;;;;;;19.80;11.53;;;;;;;;;;5062156;28;20474;-69
2023/01/26 07:17:34;;;;;;;16.90;11.23;;;;;;;;;;5067028;28;20440;-67
2023/01/26 07:19:59;;;;;;;21.00;10.70;;;;;;;;;;5061398;28;20491;-70
2023/01/26 07:22:25;;;;;;;21.10;11.37;;;;;;;;;;5047128;28;20265;-68
2023/01/26 07:24:50;;;;;;;17.63;11.43;;;;;;;;;;5047061;28;20202;-66
2023/01/26 07:27:15;;;;;;;29.23;12.33;;;;;;;;;;5047422;28;20187;-66
2023/01/26 07:29:41;;;;;;;22.23;9.07;;;;;;;;;;5047092;28;20228;-68
2023/01/26 07:32:06;;;;;;;15.63;10.30;;;;;;;;;;5046869;28;20565;-67
2023/01/26 07:34:32;;;;;;;16.33;8.37;;;;;;;;;;5048768;28;20242;-68
2023/01/26 07:36:57;;;;;;;19.93;8.33;;;;;;;;;;5054290;28;20221;-68
2023/01/26 07:39:23;;;;;;;30.70;10.83;;;;;;;;;;5060051;28;20285;-67
2023/01/26 07:41:49;;;;;;;19.63;8.87;;;;;;;;;;5069203;28;20232;-69
2023/01/26 07:44:14;;;;;;;15.87;7.60;;;;;;;;;;5061537;28;20216;-68
2023/01/26 07:46:40;;;;;;;14.07;8.33;;;;;;;;;;5049482;28;20461;-68
2023/01/26 07:49:06;;;;;;;38.07;10.70;;;;;;;;;;5048995;28;20210;-69
2023/01/26 07:51:32;;;;;;;24.00;8.70;;;;;;;;;;5056025;28;20174;-68
2023/01/26 07:53:57;;;;;;;16.57;7.97;;;;;;;;;;5080286;28;20174;-68
2023/01/26 07:56:23;;;;;;;20.17;9.23;;;;;;;;;;5052906;28;20539;-69
2023/01/26 07:58:52;;;;;;;16.00;8.50;;;;;;;;;;5049265;28;20237;-69
2023/01/26 08:01:18;;;;;;;12.67;8.10;;;;;;;;;;5048906;28;20217;-68
2023/01/26 08:03:44;;;;;;;75.93;14.93;;;;;;;;;;5049618;28;20441;-67
2023/01/26 08:06:10;;;;;;;56.93;14.13;;;;;;;;;;5049413;28;20191;-67
2023/01/26 08:08:36;;;;;;;18.93;8.27;;;;;;;;;;5067880;28;20426;-68
2023/01/26 08:11:02;;;;;;;14.37;8.13;;;;;;;;;;5073605;28;20416;-67
2023/01/26 08:13:29;;;;;;;11.40;8.37;;;;;;;;;;5066807;28;20425;-67
2023/01/26 08:15:59;;;;;;;12.97;7.90;;;;;;;;;;5079774;28;20213;-68
2023/01/26 08:18:24;;;;;;;20.97;8.20;;;;;;;;;;5070136;28;20527;-67
2023/01/26 08:20:53;;;;;;;77.97;13.00;;;;;;;;;;5069407;28;20508;-69
2023/01/26 08:23:19;;;;;;;20.03;10.70;;;;;;;;;;5069197;28;20166;-69
2023/01/26 08:25:45;;;;;;;19.70;10.30;;;;;;;;;;5069670;28;20968;-69
2023/01/26 08:28:10;;;;;;;15.57;7.70;;;;;;;;;;5068753;28;20190;-68
2023/01/26 08:30:36;;;;;;;16.63;8.43;;;;;;;;;;5069285;28;20415;-69
2023/01/26 08:33:02;;;;;;;14.10;7.50;;;;;;;;;;5063709;28;20324;-69
2023/01/26 08:35:27;;;;;;;10.67;7.23;;;;;;;;;;5072512;28;20198;-69
2023/01/26 08:37:53;;;;;;;14.00;6.97;;;;;;;;;;5074426;28;20928;-69
2023/01/26 08:40:18;;;;;;;14.83;7.67;;;;;;;;;;5077040;28;20180;-67
2023/01/26 08:42:44;;;;;;;13.30;7.20;;;;;;;;;;5088248;28;20172;-68
2023/01/26 08:45:09;;;;;;;12.30;7.03;;;;;;;;;;5072974;28;20718;-68
2023/01/26 08:47:35;;;;;;;12.50;7.73;;;;;;;;;;5068273;28;20835;-69
2023/01/26 08:50:00;;;;;;;10.73;6.87;;;;;;;;;;5068135;28;20166;-69
2023/01/26 08:52:26;;;;;;;16.30;8.37;;;;;;;;;;5049088;28;20190;-69
2023/01/26 08:54:51;;;;;;;14.33;7.13;;;;;;;;;;5048422;28;20171;-69
2023/01/26 08:57:17;;;;;;;13.63;7.23;;;;;;;;;;5048265;28;20203;-68
2023/01/26 08:59:42;;;;;;;11.90;6.90;;;;;;;;;;5066235;28;20267;-69
2023/01/26 09:02:10;;;;;;;13.43;7.57;;;;;;;;;;5064753;28;20273;-68
2023/01/26 09:04:36;;;;;;;12.17;6.60;;;;;;;;;;5061980;28;20181;-69
2023/01/26 09:07:01;;;;;;;11.43;6.20;;;;;;;;;;5049290;28;20429;-69
2023/01/26 09:09:27;;;;;;;194.03;23.40;;;;;;;;;;5049394;28;20174;-70
2023/01/26 09:11:55;;;;;;;14.37;8.00;;;;;;;;;;5048700;28;20330;-70
2023/01/26 09:14:21;;;;;;;14.70;7.80;;;;;;;;;;5047955;28;20194;-68
2023/01/26 09:16:46;;;;;;;19.70;8.90;;;;;;;;;;5047794;28;20505;-68
2023/01/26 09:19:12;;;;;;;20.57;8.83;;;;;;;;;;5075437;28;20469;-68
2023/01/26 09:21:37;;;;;;;14.43;7.70;;;;;;;;;;5068883;28;20185;-70
2023/01/26 09:24:03;;;;;;;24.77;8.67;;;;;;;;;;5073885;28;20175;-68
2023/01/26 09:26:29;;;;;;;9.57;6.80;;;;;;;;;;5088045;28;20196;-68
2023/01/26 09:28:55;;;;;;;22.50;7.53;;;;;;;;;;5069196;28;20177;-69
2023/01/26 09:31:20;;;;;;;20.30;7.70;;;;;;;;;;5067622;28;20487;-69
2023/01/26 09:33:48;;;;;;;14.70;7.00;;;;;;;;;;5067666;28;20628;-67
2023/01/26 09:36:13;;;;;;;13.60;7.17;;;;;;;;;;5073332;28;20342;-69
2023/01/26 09:38:39;;;;;;;19.50;10.40;;;;;;;;;;5087742;28;20545;-68
2023/01/26 09:41:13;;;;;;;18.83;10.93;;;;;;;;;;5087110;28;20208;-69
2023/01/26 09:43:40;;;;;;;23.13;12.10;;;;;;;;;;5089142;28;20173;-68
2023/01/26 09:46:22;;;;;;;17.50;9.00;;;;;;;;;;5087945;28;20415;-70
2023/01/26 09:49:19;;;;;;;17.13;10.73;;;;;;;;;;5087658;28;20521;-68
2023/01/26 09:51:55;;;;;;;11.87;7.83;;;;;;;;;;5087803;28;20411;-68
2023/01/26 09:55:03;;;;;;;17.03;8.20;;;;;;;;;;5071367;28;20419;-68
2023/01/26 09:57:36;;;;;;;16.07;7.90;;;;;;;;;;5039693;28;20476;-67
2023/01/26 10:00:10;;;;;;;14.83;9.00;;;;;;;;;;5067472;28;20897;-66
2023/01/26 10:02:51;;;;;;;13.00;7.10;;;;;;;;;;5084359;28;20977;-68
2023/01/26 10:05:29;;;;;;;13.37;8.60;;;;;;;;;;5092146;28;20415;-69
2023/01/26 10:07:54;;;;;;;18.20;9.00;;;;;;;;;;5091674;28;20442;-68
2023/01/26 10:10:31;;;;;;;13.57;8.40;;;;;;;;;;5091492;28;20969;-68
2023/01/26 10:12:57;;;;;;;12.50;8.33;;;;;;;;;;5090558;28;20169;-68
2023/01/26 10:15:37;;;;;;;11.93;7.80;;;;;;;;;;5070912;28;20408;-68
2023/01/26 10:18:06;;;;;;;14.40;8.53;;;;;;;;;;5071290;28;20460;-69
2023/01/26 10:20:35;;;;;;;16.33;8.63;;;;;;;;;;5070931;28;20478;-68
2023/01/26 10:23:10;;;;;;;14.43;8.73;;;;;;;;;;5066841;28;20512;-67
2023/01/26 10:25:38;;;;;;;30.20;9.80;;;;;;;;;;5064103;28;20424;-69
2023/01/26 10:28:34;;;;;;;16.20;8.00;;;;;;;;;;5062337;28;20440;-67
2023/01/26 10:31:02;;;;;;;24.43;9.87;;;;;;;;;;5037731;28;20429;-69
2023/01/26 10:33:33;;;;;;;35.33;9.90;;;;;;;;;;5050808;28;20413;-68
2023/01/26 10:35:59;;;;;;;19.13;8.70;;;;;;;;;;5050205;28;20488;-68
2023/01/26 10:38:31;;;;;;;16.07;8.20;;;;;;;;;;5050260;28;20437;-68
2023/01/26 10:41:18;;;;;;;20.77;8.73;;;;;;;;;;5051921;28;20416;-67
2023/01/26 10:44:01;;;;;;;23.37;9.47;;;;;;;;;;5070453;28;20805;-69
2023/01/26 10:46:33;;;;;;;19.70;8.00;;;;;;;;;;5072541;28;20411;-69
2023/01/26 10:49:20;;;;;;;13.57;7.67;;;;;;;;;;5071420;28;20407;-68
2023/01/26 10:52:05;;;;;;;94.33;17.43;;;;;;;;;;5069425;28;20412;-68
2023/01/26 10:54:32;;;;;;;10.50;7.00;;;;;;;;;;5056013;28;20430;-71
2023/01/26 10:57:06;;;;;;;23.73;9.03;;;;;;;;;;5069951;28;20464;-69
2023/01/26 10:59:39;;;;;;;15.73;7.53;;;;;;;;;;5069924;28;20464;-69
2023/01/26 11:02:10;;;;;;;46.37;10.40;;;;;;;;;;5069295;28;20404;-69
2023/01/26 11:04:37;;;;;;;17.17;6.80;;;;;;;;;;5069132;28;20901;-69
2023/01/26 11:07:26;;;;;;;11.20;6.20;;;;;;;;;;5069497;28;20890;-69
2023/01/26 11:09:52;;;;;;;18.30;7.20;;;;;;;;;;5069713;28;20407;-68
2023/01/26 11:12:19;;;;;;;9.70;5.80;;;;;;;;;;5069304;28;20503;-69
2023/01/26 11:15:14;;;;;;;12.50;7.30;;;;;;;;;;5068869;28;20568;-68
2023/01/26 11:17:50;;;;;;;10.77;6.67;;;;;;;;;;5065690;28;20448;-68
2023/01/26 11:20:50;;;;;;;9.80;5.57;;;;;;;;;;5049343;28;20409;-69
2023/01/26 11:23:40;;;;;;;8.10;6.03;;;;;;;;;;5041860;28;20808;-67
2023/01/26 11:26:31;;;;;;;7.03;4.67;;;;;;;;;;5049384;28;20402;-70
2023/01/26 11:29:26;;;;;;;20.03;7.30;;;;;;;;;;5049366;28;20516;-69
2023/01/26 11:32:03;;;;;;;79.17;14.83;;;;;;;;;;5065354;28;20415;-70
2023/01/26 11:34:43;;;;;;;12.00;5.90;;;;;;;;;;5049641;28;20405;-70
2023/01/26 11:37:08;;;;;;;12.87;5.17;;;;;;;;;;5069339;28;20459;-71
2023/01/26 11:39:42;;;;;;;20.50;6.57;;;;;;;;;;5089709;28;20407;-66
2023/01/26 11:42:26;;;;;;;10.63;6.90;;;;;;;;;;5089643;28;20209;-70
2023/01/26 11:45:14;;;;;;;7.43;5.00;;;;;;;;;;5079540;28;20439;-69
2023/01/26 11:48:04;;;;;;;6.53;4.13;;;;;;;;;;5068319;28;20444;-70
2023/01/26 11:50:45;;;;;;;7.07;4.30;;;;;;;;;;5062251;28;20504;-69
2023/01/26 11:53:14;;;;;;;10.43;5.30;;;;;;;;;;5087938;28;20430;-70
2023/01/26 11:55:51;;;;;;;24.30;7.33;;;;;;;;;;5049519;28;20449;-69
2023/01/26 11:58:30;;;;;;;24.67;8.43;;;;;;;;;;5052550;28;20424;-70
2023/01/26 12:00:58;;;;;;;30.53;8.27;;;;;;;;;;5079634;28;20966;-69
2023/01/26 12:03:33;;;;;;;9.30;5.10;;;;;;;;;;5067668;28;20836;-69
2023/01/26 12:06:03;;;;;;;44.73;12.07;;;;;;;;;;5085255;28;20396;-70
2023/01/26 12:08:37;;;;;;;13.07;6.13;;;;;;;;;;5071356;28;21120;-71
2023/01/26 12:11:23;;;;;;;61.17;13.50;;;;;;;;;;5068815;28;20957;-69
2023/01/26 12:14:01;;;;;;;47.43;11.70;;;;;;;;;;5067925;28;20416;-69
2023/01/26 12:16:41;;;;;;;50.60;10.50;;;;;;;;;;5052520;28;20963;-70
2023/01/26 12:19:19;;;;;;;17.33;8.10;;;;;;;;;;5089555;28;20820;-69
2023/01/26 12:21:45;;;;;;;16.13;7.13;;;;;;;;;;5089233;28;20403;-69
2023/01/26 12:24:28;;;;;;;20.63;8.50;;;;;;;;;;5092157;28;20764;-69
2023/01/26 12:26:54;;;;;;;13.20;6.43;;;;;;;;;;5090872;28;20435;-70
2023/01/26 12:29:47;;;;;;;10.90;6.57;;;;;;;;;;5091119;28;20569;-69
2023/01/26 12:32:14;;;;;;;10.63;6.10;;;;;;;;;;5092306;28;20195;-70
2023/01/26 12:34:40;;;;;;;8.87;6.47;;;;;;;;;;5089052;28;20493;-69
2023/01/26 12:37:31;;;;;;;152.60;21.40;;;;;;;;;;5088736;28;20889;-69
2023/01/26 12:40:08;;;;;;;106.53;18.47;;;;;;;;;;5088937;28;20228;-69
2023/01/26 12:42:52;;;;;;;26.13;8.73;;;;;;;;;;5088802;28;20504;-68
2023/01/26 12:45:24;;;;;;;13.50;7.33;;;;;;;;;;5068447;28;20757;-69
2023/01/26 12:47:54;;;;;;;13.17;6.87;;;;;;;;;;5068076;28;20498;-70
2023/01/26 12:50:34;;;;;;;14.87;6.70;;;;;;;;;;5068589;28;20424;-70
2023/01/26 12:53:23;;;;;;;14.53;7.87;;;;;;;;;;5068476;28;20439;-69
2023/01/26 12:55:59;;;;;;;17.97;7.50;;;;;;;;;;5066886;28;20547;-69
2023/01/26 12:58:36;;;;;;;34.87;9.17;;;;;;;;;;5067940;28;20467;-69
2023/01/26 13:01:18;;;;;;;8.43;6.17;;;;;;;;;;5067181;28;20432;-70
2023/01/26 13:03:56;;;;;;;28.50;9.90;;;;;;;;;;5061881;28;20451;-70
2023/01/26 13:06:26;;;;;;;22.40;8.00;;;;;;;;;;5068232;28;20495;-68
2023/01/26 13:09:31;;;;;;;15.00;7.23;;;;;;;;;;5068189;28;20411;-69
2023/01/26 13:11:58;;;;;;;8.97;6.10;;;;;;;;;;5064451;28;20424;-69
2023/01/26 13:14:33;;;;;;;9.87;6.03;;;;;;;;;;5058959;28;20478;-69
2023/01/26 13:17:13;;;;;;;12.87;6.97;;;;;;;;;;5067533;28;21361;-69
2023/01/26 13:19:42;;;;;;;21.23;7.77;;;;;;;;;;5068051;28;20766;-70
2023/01/26 13:22:22;;;;;;;13.53;6.60;;;;;;;;;;5067748;28;20550;-70
2023/01/26 13:24:58;;;;;;;10.50;5.80;;;;;;;;;;5065997;28;20440;-69
2023/01/26 13:27:36;;;;;;;54.77;12.30;;;;;;;;;;5067878;28;20436;-68
2023/01/26 13:30:03;;;;;;;56.07;12.23;;;;;;;;;;5068039;28;20412;-70
2023/01/26 13:32:34;;;;;;;25.50;7.07;;;;;;;;;;5065130;28;20903;-69
2023/01/26 13:35:00;;;;;;;9.47;6.30;;;;;;;;;;5067737;28;20569;-72
2023/01/26 13:37:34;;;;;;;12.83;6.40;;;;;;;;;;5067809;28;20883;-69
2023/01/26 13:40:14;;;;;;;12.00;5.80;;;;;;;;;;5066605;28;20213;-68
2023/01/26 13:42:54;;;;;;;19.10;7.23;;;;;;;;;;5071077;28;20411;-69
2023/01/26 13:45:29;;;;;;;39.83;8.20;;;;;;;;;;5071691;28;20408;-69
2023/01/26 13:47:57;;;;;;;20.83;6.50;;;;;;;;;;5071807;28;20423;-68
2023/01/26 13:50:31;;;;;;;13.40;5.27;;;;;;;;;;5071664;28;20491;-68
2023/01/26 13:52:57;;;;;;;10.10;6.13;;;;;;;;;;5071668;28;20520;-69
2023/01/26 13:55:25;;;;;;;11.03;5.60;;;;;;;;;;5063629;28;20444;-68
2023/01/26 13:58:09;;;;;;;6.67;5.27;;;;;;;;;;5055196;28;20969;-68
2023/01/26 14:00:35;;;;;;;14.60;6.37;;;;;;;;;;5071287;28;20517;-72
2023/01/26 14:03:00;;;;;;;10.93;6.53;;;;;;;;;;5071632;28;20514;-67
2023/01/26 14:05:27;;;;;;;8.40;6.00;;;;;;;;;;5071459;28;20170;-68
2023/01/26 14:07:53;;;;;;;8.90;6.10;;;;;;;;;;5071362;28;20190;-69
2023/01/26 14:10:21;;;;;;;9.20;6.10;;;;;;;;;;5071137;28;20408;-68
2023/01/26 14:12:56;;;;;;;8.87;5.70;;;;;;;;;;5071068;28;20181;-69
2023/01/26 14:15:22;;;;;;;16.83;7.00;;;;;;;;;;5071028;28;20422;-68
2023/01/26 14:18:21;;;;;;;15.20;6.13;;;;;;;;;;5071230;28;20432;-68
2023/01/26 14:20:46;;;;;;;9.60;5.50;;;;;;;;;;5054692;28;20428;-68
2023/01/26 14:23:14;;;;;;;12.97;7.10;;;;;;;;;;5070754;28;20401;-68
2023/01/26 14:25:44;;;;;;;8.40;5.03;;;;;;;;;;5070988;28;20216;-68
2023/01/26 14:28:15;;;;;;;9.07;5.57;;;;;;;;;;5071088;28;20886;-69
2023/01/26 14:30:40;;;;;;;10.70;5.67;;;;;;;;;;5070723;28;20408;-70
2023/01/26 14:33:12;;;;;;;10.53;6.30;;;;;;;;;;5070896;28;20408;-68
2023/01/26 14:35:39;;;;;;;44.07;11.77;;;;;;;;;;5060682;28;20242;-68
2023/01/26 14:38:12;;;;;;;17.40;8.00;;;;;;;;;;5070698;28;20420;-68
2023/01/26 14:40:50;;;;;;;38.70;9.30;;;;;;;;;;5081668;28;20419;-68
2023/01/26 14:43:16;;;;;;;7.23;5.60;;;;;;;;;;5073063;28;20424;-68
2023/01/26 14:45:47;;;;;;;16.47;6.80;;;;;;;;;;5090962;28;20479;-68
2023/01/26 14:48:17;;;;;;;14.70;5.80;;;;;;;;;;5091040;28;20465;-68
2023/01/26 14:50:45;;;;;;;12.13;6.50;;;;;;;;;;5090720;28;20417;-69
2023/01/26 14:53:17;;;;;;;12.27;7.50;;;;;;;;;;5076708;28;20459;-68
2023/01/26 14:55:44;;;;;;;10.30;6.40;;;;;;;;;;5049004;28;20966;-68
2023/01/26 14:58:31;;;;;;;16.13;6.97;;;;;;;;;;5050130;28;20429;-69
2023/01/26 15:01:00;;;;;;;7.63;5.57;;;;;;;;;;5050223;28;20902;-69
2023/01/26 15:03:32;;;;;;;10.43;6.27;;;;;;;;;;5050373;28;20945;-68
2023/01/26 15:06:13;;;;;;;26.63;8.00;;;;;;;;;;5050433;28;20474;-68
2023/01/26 15:08:39;;;;;;;10.23;6.23;;;;;;;;;;5050071;28;21000;-69
2023/01/26 15:13:54;;;;;;;12.00;7.20;;;;;;;;;;5079554;28;20399;-69
2023/01/26 15:16:21;;;;;;;12.80;9.63;;;;;;;;;;5069799;28;20529;-69
2023/01/26 15:19:02;;;;;;;15.60;6.50;;;;;;;;;;5084284;28;20412;-69
2023/01/26 15:21:33;;;;;;;9.40;6.20;;;;;;;;;;5090085;28;20531;-68
2023/01/26 15:23:58;;;;;;;10.77;7.10;;;;;;;;;;5090203;28;20493;-69
2023/01/26 15:26:35;;;;;;;25.60;8.00;;;;;;;;;;5070395;28;20435;-70
2023/01/26 15:29:04;;;;;;;9.90;6.20;;;;;;;;;;5069095;28;20194;-70
2023/01/26 15:31:38;;;;;;;10.20;6.80;;;;;;;;;;5066093;28;20415;-70
2023/01/26 15:34:05;;;;;;;14.43;5.53;;;;;;;;;;5055814;28;20436;-68
2023/01/26 15:36:46;;;;;;;45.23;10.77;;;;;;;;;;5068286;28;20464;-70